Terminal Aerodrome Forecast
Issued by NWS

Home | Current Version | Previous Version | Text Only | Print | Product List | Glossary On
Versions: 1 2 3 4 5 6 7 8 9 10 11 12 13 14 15 16 17 18 19 20 21 22 23 24 25 26 27 28 29 30 31 32 33 34 35 36 37 38 39
000
FTUS42 KGSP 290042 AAA
TAFHKY
TAF AMD
KHKY 290042Z 2901/2924 22003KT P6SM VCTS FEW040CB BKN150
     FM290300 00000KT 4SM BR SCT013 BKN250
     FM291100 00000KT 1SM BR BKN013
     FM291300 19004KT P6SM SCT012 BKN035 PROB30 2916/2920 4SM TSRA
      BKN012CB=

USA.gov is the U.S. government's official web portal to all federal, state and local government web resources and services.